Список аэропортов
Фактическая погода:

18 октября, 10:00
Температура: +11°C (+11.0*)
Ветер: 0
Давление: *767 мм
несуществ. обл.
Время (МСК)Темп. СВетерВлажностьДавлениеОблачностьОсадки
09:00+5В, 1 м/с100%1024 гПаоблачно
10:00+7ЮВ, 1 м/с93%1024 гПамалооблачно
11:00+11ЮВ, 2 м/с88%1023 гПаясно
12:00+14ЮВ, 2 м/с79%1022 гПаясно
13:00+17ЮВ, 3 м/с70%1022 гПаясно
14:00+18ЮВ, 3 м/с66%1022 гПаясно
15:00+18ЮВ, 4 м/с63%1021 гПаясно
16:00+18ЮВ, 4 м/с60%1020 гПаясно
17:00+17ЮВ, 2 м/с66%1020 гПаясно
18:00+14ЮВ, 1 м/с84%1020 гПаясно
19:00+12ЮВ, 1 м/с94%1020 гПаясно
20:00+11ЮВ, 1 м/с97%1020 гПаясно
21:00+10ЮВ, 2 м/с97%1020 гПаясно
22:00+10ЮВ, 2 м/с97%1019 гПаясно
23:00+9Ю, 1 м/с98%1019 гПаясно
19 октября
00:00+7Ю, 1 м/с99%1019 гПаоблачно
01:00+7ЮЗ, 1 м/с100%1019 гПаоблачно
02:00+6ЮЗ, 1 м/с100%1019 гПаоблачно
03:00+6ЮЗ, 1 м/с100%1019 гПаоблачно
04:00+5З, 1 м/с100%1019 гПаоблачно
05:00+5З, 1 м/с100%1019 гПаоблачно
06:00+4З, 1 м/с100%1019 гПаоблачно
07:00+4З, 2 м/с100%1018 гПаоблачно
08:00+4З, 1 м/с100%1018 гПаоблачно
09:00+4З, 2 м/с98%1019 гПас прояснениями
10:00+7СЗ, 1 м/с94%1019 гПаясно
11:00+10СЗ, 2 м/с88%1019 гПаясно
12:00+13СЗ, 2 м/с80%1019 гПаясно
13:00+14СЗ, 3 м/с69%1019 гПамалооблачно
14:00+15СЗ, 4 м/с65%1019 гПаясно
15:00+15СЗ, 4 м/с68%1019 гПаясно
16:00+14СЗ, 5 м/с76%1020 гПаоблачно
17:00+12СЗ, 5 м/с82%1020 гПаоблачно
18:00+11С, 5 м/с85%1021 гПаоблачно
19:00+11С, 4 м/с84%1021 гПаоблачно
20:00+11С, 4 м/с82%1022 гПаоблачно
21:00+11С, 3 м/с80%1022 гПаоблачно
22:00+10С, 4 м/с77%1022 гПаоблачно
23:00+10С, 4 м/с71%1023 гПаоблачно
20 октября
00:00+9С, 3 м/с71%1023 гПаоблачно
01:00+8СЗ, 2 м/с78%1023 гПаоблачно
02:00+7СЗ, 2 м/с84%1024 гПаоблачно
03:00+6СЗ, 2 м/с87%1023 гПаоблачно
04:00+5СЗ, 2 м/с93%1024 гПаоблачно
05:00+4СЗ, 1 м/с97%1024 гПаоблачно
06:00+3СЗ, 1 м/с98%1024 гПамалооблачно
07:00+2СЗ, 1 м/с99%1024 гПамалооблачно
08:00+1СЗ, 1 м/с98%1024 гПас прояснениями
09:00+2СЗ, 1 м/с95%1025 гПас прояснениями